Terminal Aerodrome Forecast
Issued by NWS New Orleans/Baton Rouge, LA

Home | Current Version | Previous Version | Text Only | Print | Product List | Glossary On
Versions: 1 2 3 4 5 6 7 8 9 10 11 12 13 14
000
FTUS44 KLIX 192300 RRA
TAFBTR
TAF
KBTR 192340Z 2000/2024 05010KT 2SM RA BR OVC007
     FM200300 05006KT 3SM SHRA OVC012
     FM200600 04006KT P6SM OVC012
      TEMPO 2009/2013 BKN003
     FM201400 03006KT P6SM OVC020=

USA.gov is the U.S. government's official web portal to all federal, state and local government web resources and services.